Time;durP1;ratioP1;P1;durP2;ratioP2;P2;SDS_P1;SDS_P2;PMS_P1;PMS_P2;Temp;Humidity;BMP_temperature;BMP_pressure;BME280_temperature;BME280_humidity;BME280_pressure;Samples;Min_cycle;Max_cycle;Signal;HPM_P1;HPM_P2
2022/08/29 00:01:13;;;;;;;5.47;1.80;;;;;;;;;;4988921;28;20482;-67
2022/08/29 00:03:41;;;;;;;5.95;2.00;;;;;;;;;;4999000;28;20033;-68
2022/08/29 00:06:07;;;;;;;5.03;1.77;;;;;;;;;;5003388;28;20034;-68
2022/08/29 00:08:33;;;;;;;6.93;2.00;;;;;;;;;;5002691;28;20034;-68
2022/08/29 00:10:59;;;;;;;9.20;2.00;;;;;;;;;;5004275;28;20091;-68
2022/08/29 00:13:26;;;;;;;6.45;2.10;;;;;;;;;;5007161;28;20022;-68
2022/08/29 00:15:52;;;;;;;7.13;1.98;;;;;;;;;;5002494;28;20099;-70
2022/08/29 00:18:19;;;;;;;5.32;1.88;;;;;;;;;;4992240;28;20368;-68
2022/08/29 00:20:46;;;;;;;4.95;1.65;;;;;;;;;;5004499;28;20119;-68
2022/08/29 00:23:12;;;;;;;8.82;2.08;;;;;;;;;;5006380;28;20072;-68
2022/08/29 00:25:39;;;;;;;6.43;2.10;;;;;;;;;;5003791;28;20033;-68
2022/08/29 00:28:05;;;;;;;4.82;1.67;;;;;;;;;;5006954;28;20037;-68
2022/08/29 00:30:31;;;;;;;5.85;1.60;;;;;;;;;;5005432;28;20037;-68
2022/08/29 00:32:57;;;;;;;4.90;1.70;;;;;;;;;;5003588;28;20132;-67
2022/08/29 00:35:27;;;;;;;5.68;1.90;;;;;;;;;;4993729;28;20549;-68
2022/08/29 00:37:53;;;;;;;4.47;1.70;;;;;;;;;;4981757;28;20033;-68
2022/08/29 00:40:24;;;;;;;5.97;1.80;;;;;;;;;;4970510;28;20026;-69
2022/08/29 00:42:51;;;;;;;7.40;1.88;;;;;;;;;;4981739;28;20026;-68
2022/08/29 00:45:17;;;;;;;6.88;1.80;;;;;;;;;;4986707;28;20049;-67
2022/08/29 00:48:16;;;;;;;4.93;1.63;;;;;;;;;;4982285;28;20022;-68
2022/08/29 00:50:44;;;;;;;5.22;1.80;;;;;;;;;;4897270;29;20043;-68
2022/08/29 00:53:13;;;;;;;6.78;1.90;;;;;;;;;;4896933;29;20044;-68
2022/08/29 00:55:39;;;;;;;5.38;1.55;;;;;;;;;;4895066;29;20039;-68
2022/08/29 00:58:08;;;;;;;4.97;1.70;;;;;;;;;;4898119;29;20042;-68
2022/08/29 01:00:36;;;;;;;5.50;1.90;;;;;;;;;;4903530;29;20594;-68
2022/08/29 01:03:03;;;;;;;4.93;1.52;;;;;;;;;;4904212;29;20829;-67
2022/08/29 01:05:29;;;;;;;6.95;2.00;;;;;;;;;;4904525;29;20042;-69
2022/08/29 01:07:56;;;;;;;6.97;2.13;;;;;;;;;;4897164;29;20044;-68
2022/08/29 01:13:08;;;;;;;4.90;1.75;;;;;;;;;;4898051;29;20094;-67
2022/08/29 01:15:35;;;;;;;4.78;1.50;;;;;;;;;;4895601;29;20397;-68
2022/08/29 01:18:02;;;;;;;5.10;1.65;;;;;;;;;;4897584;29;20028;-68
2022/08/29 01:20:39;;;;;;;4.90;1.60;;;;;;;;;;4900002;29;20048;-68
2022/08/29 01:23:14;;;;;;;5.57;1.80;;;;;;;;;;4901902;29;20059;-67
2022/08/29 01:25:45;;;;;;;4.88;1.80;;;;;;;;;;4914631;28;20282;-68
2022/08/29 01:28:22;;;;;;;5.63;1.60;;;;;;;;;;4985706;28;20440;-67
2022/08/29 01:31:21;;;;;;;7.35;1.70;;;;;;;;;;4962654;28;20387;-67
2022/08/29 01:33:52;;;;;;;6.03;1.70;;;;;;;;;;4904584;28;20035;-67
2022/08/29 01:36:41;;;;;;;4.53;1.60;;;;;;;;;;4934974;28;20461;-67
2022/08/29 01:39:07;;;;;;;5.47;1.70;;;;;;;;;;4929359;28;20572;-67
2022/08/29 01:41:34;;;;;;;6.25;1.70;;;;;;;;;;4939455;28;20661;-67
2022/08/29 01:44:00;;;;;;;4.57;1.67;;;;;;;;;;4935653;28;20042;-67
2022/08/29 01:46:31;;;;;;;4.22;1.60;;;;;;;;;;4937321;28;20218;-67
2022/08/29 01:48:58;;;;;;;5.82;1.60;;;;;;;;;;4933791;28;20469;-67
2022/08/29 01:51:24;;;;;;;5.82;1.60;;;;;;;;;;4942016;28;20037;-68
2022/08/29 01:53:51;;;;;;;5.63;1.50;;;;;;;;;;4935136;28;20150;-68
2022/08/29 01:56:25;;;;;;;6.07;1.70;;;;;;;;;;4936608;28;20084;-67
2022/08/29 01:58:52;;;;;;;6.30;1.80;;;;;;;;;;4923368;28;20030;-67
2022/08/29 02:01:20;;;;;;;5.53;1.63;;;;;;;;;;4927489;28;20047;-67
2022/08/29 02:03:46;;;;;;;5.60;1.63;;;;;;;;;;4933663;28;20085;-68
2022/08/29 02:06:12;;;;;;;4.10;1.50;;;;;;;;;;4938322;28;20030;-68
2022/08/29 02:08:40;;;;;;;5.63;1.45;;;;;;;;;;4935986;28;20047;-67
2022/08/29 02:11:09;;;;;;;5.88;1.38;;;;;;;;;;5003633;28;20052;-66
2022/08/29 02:13:39;;;;;;;5.68;1.42;;;;;;;;;;5007341;28;20080;-67
2022/08/29 02:16:06;;;;;;;3.20;1.33;;;;;;;;;;5008101;28;20037;-67
2022/08/29 02:18:32;;;;;;;5.63;1.48;;;;;;;;;;5006532;28;20049;-67
2022/08/29 02:20:58;;;;;;;5.53;1.45;;;;;;;;;;4981355;28;20662;-67
2022/08/29 02:23:24;;;;;;;4.70;1.40;;;;;;;;;;5005564;28;20448;-67
2022/08/29 02:25:51;;;;;;;5.15;1.40;;;;;;;;;;4990680;28;20034;-68
2022/08/29 02:28:18;;;;;;;5.88;1.60;;;;;;;;;;5007096;28;20156;-67
2022/08/29 02:30:51;;;;;;;8.52;1.60;;;;;;;;;;5000901;28;20036;-68
2022/08/29 02:33:18;;;;;;;4.93;1.48;;;;;;;;;;5005858;28;20014;-67
2022/08/29 02:35:45;;;;;;;5.72;1.27;;;;;;;;;;5001559;28;20507;-68
2022/08/29 02:38:12;;;;;;;3.63;1.17;;;;;;;;;;5005523;28;20035;-67
2022/08/29 02:40:38;;;;;;;3.65;1.33;;;;;;;;;;5002905;28;20600;-67
2022/08/29 02:43:05;;;;;;;5.18;1.38;;;;;;;;;;5005312;28;20055;-67
2022/08/29 02:45:31;;;;;;;5.47;1.33;;;;;;;;;;4993095;28;20420;-67
2022/08/29 02:47:58;;;;;;;5.63;1.40;;;;;;;;;;5002940;28;20113;-67
2022/08/29 02:50:24;;;;;;;5.90;1.30;;;;;;;;;;5005286;28;20033;-67
2022/08/29 02:52:51;;;;;;;5.03;1.50;;;;;;;;;;4998749;28;20505;-67
2022/08/29 02:55:19;;;;;;;4.28;1.35;;;;;;;;;;5002577;28;20072;-67
2022/08/29 02:57:46;;;;;;;4.32;1.30;;;;;;;;;;4984940;28;20026;-67
2022/08/29 03:00:17;;;;;;;6.90;1.40;;;;;;;;;;5004331;28;20533;-67
2022/08/29 03:02:44;;;;;;;4.35;1.50;;;;;;;;;;5000265;28;20034;-67
2022/08/29 03:05:10;;;;;;;5.68;1.35;;;;;;;;;;4991271;28;20032;-67
2022/08/29 03:07:36;;;;;;;4.50;1.20;;;;;;;;;;5001044;28;20068;-67
2022/08/29 03:10:03;;;;;;;4.25;1.30;;;;;;;;;;5001744;28;20385;-67
2022/08/29 03:12:29;;;;;;;4.43;1.45;;;;;;;;;;4989284;28;20033;-67
2022/08/29 03:14:55;;;;;;;4.20;1.30;;;;;;;;;;5001172;28;20047;-66
2022/08/29 03:17:21;;;;;;;8.88;1.55;;;;;;;;;;5001176;28;20029;-67
2022/08/29 03:19:47;;;;;;;6.60;1.70;;;;;;;;;;5001139;28;20486;-67
2022/08/29 03:22:14;;;;;;;4.85;1.30;;;;;;;;;;5003967;28;20009;-67
2022/08/29 03:24:40;;;;;;;4.72;1.20;;;;;;;;;;4999154;28;20202;-66
2022/08/29 03:27:06;;;;;;;5.70;1.40;;;;;;;;;;5004026;28;20029;-67
2022/08/29 03:29:32;;;;;;;6.47;1.58;;;;;;;;;;5003532;28;20095;-67
2022/08/29 03:31:59;;;;;;;5.80;1.70;;;;;;;;;;4985305;28;20469;-67
2022/08/29 03:34:26;;;;;;;7.07;1.45;;;;;;;;;;5001604;28;20037;-67
2022/08/29 03:36:52;;;;;;;5.00;1.40;;;;;;;;;;4998517;28;20041;-66
2022/08/29 03:39:18;;;;;;;6.28;1.40;;;;;;;;;;5003548;28;20045;-66
2022/08/29 03:41:44;;;;;;;6.07;1.60;;;;;;;;;;4999496;28;20072;-67
2022/08/29 03:44:11;;;;;;;5.93;1.55;;;;;;;;;;5000594;28;20107;-67
2022/08/29 03:46:38;;;;;;;5.40;1.63;;;;;;;;;;4996793;28;20096;-67
2022/08/29 03:49:06;;;;;;;5.72;1.52;;;;;;;;;;4984954;28;20242;-67
2022/08/29 03:51:32;;;;;;;7.40;1.77;;;;;;;;;;4984748;28;20033;-67
2022/08/29 03:53:59;;;;;;;5.30;1.70;;;;;;;;;;4999388;28;20056;-67
2022/08/29 03:56:25;;;;;;;5.20;1.55;;;;;;;;;;5001987;28;20148;-67
2022/08/29 03:58:51;;;;;;;5.43;1.40;;;;;;;;;;5000617;28;20056;-67
2022/08/29 04:01:18;;;;;;;4.65;1.70;;;;;;;;;;5002801;28;20013;-68
2022/08/29 04:03:44;;;;;;;5.25;1.73;;;;;;;;;;4999874;28;20447;-68
2022/08/29 04:06:11;;;;;;;7.13;1.85;;;;;;;;;;5003795;28;20029;-68
2022/08/29 04:08:37;;;;;;;5.85;1.65;;;;;;;;;;4999449;28;20040;-68
2022/08/29 04:11:10;;;;;;;6.25;1.70;;;;;;;;;;5000962;28;20024;-68
2022/08/29 04:13:36;;;;;;;9.07;1.90;;;;;;;;;;4995983;28;20033;-68
2022/08/29 04:16:08;;;;;;;4.38;1.50;;;;;;;;;;5008604;28;20116;-68
2022/08/29 04:18:35;;;;;;;6.35;1.63;;;;;;;;;;4984809;28;20462;-68
2022/08/29 04:21:02;;;;;;;5.50;1.50;;;;;;;;;;5005659;28;20410;-68
2022/08/29 04:23:28;;;;;;;7.13;1.70;;;;;;;;;;5005621;28;20053;-68
2022/08/29 04:25:54;;;;;;;4.60;1.45;;;;;;;;;;5004392;28;20353;-67
2022/08/29 04:28:20;;;;;;;4.20;1.50;;;;;;;;;;5007003;28;20030;-67
2022/08/29 04:30:47;;;;;;;6.05;1.58;;;;;;;;;;4986352;28;20725;-67
2022/08/29 04:33:13;;;;;;;8.15;1.85;;;;;;;;;;4998372;28;20022;-67
2022/08/29 04:35:40;;;;;;;6.32;1.80;;;;;;;;;;4982353;28;20121;-67
2022/08/29 04:38:07;;;;;;;4.50;1.50;;;;;;;;;;5002401;28;20044;-67
2022/08/29 04:40:33;;;;;;;5.57;1.67;;;;;;;;;;5000799;28;20434;-67
2022/08/29 04:43:00;;;;;;;10.77;2.00;;;;;;;;;;4983257;28;20026;-67
2022/08/29 04:45:26;;;;;;;6.28;1.80;;;;;;;;;;4986793;28;20908;-67
2022/08/29 04:47:52;;;;;;;7.60;1.90;;;;;;;;;;4998760;28;20063;-67
2022/08/29 04:50:23;;;;;;;7.22;2.08;;;;;;;;;;4999069;28;20153;-67
2022/08/29 04:52:50;;;;;;;6.53;1.77;;;;;;;;;;4980657;28;20533;-67
2022/08/29 04:55:17;;;;;;;5.50;1.85;;;;;;;;;;5001597;28;20061;-67
2022/08/29 04:57:43;;;;;;;8.25;1.80;;;;;;;;;;5000656;28;20613;-67
2022/08/29 05:00:12;;;;;;;6.95;1.73;;;;;;;;;;5006307;28;20069;-67
2022/08/29 05:02:39;;;;;;;5.28;1.63;;;;;;;;;;5001831;28;20115;-67
2022/08/29 05:05:05;;;;;;;4.82;1.60;;;;;;;;;;4985970;28;20028;-66
2022/08/29 05:07:32;;;;;;;6.80;1.60;;;;;;;;;;5004104;28;20087;-69
2022/08/29 05:10:01;;;;;;;5.72;1.58;;;;;;;;;;5002503;28;20100;-66
2022/08/29 05:12:30;;;;;;;8.20;1.70;;;;;;;;;;5006007;28;20121;-67
2022/08/29 05:14:57;;;;;;;7.28;1.70;;;;;;;;;;5002446;28;20029;-67
2022/08/29 05:17:23;;;;;;;4.47;1.48;;;;;;;;;;4989140;28;20044;-67
2022/08/29 05:19:50;;;;;;;7.35;1.80;;;;;;;;;;4981943;28;20533;-67
2022/08/29 05:22:16;;;;;;;8.02;1.90;;;;;;;;;;5006373;28;20470;-68
2022/08/29 05:24:43;;;;;;;6.10;1.85;;;;;;;;;;5002514;28;20085;-68
2022/08/29 05:27:10;;;;;;;8.65;2.10;;;;;;;;;;5006153;28;20100;-68
2022/08/29 05:29:38;;;;;;;7.50;2.03;;;;;;;;;;5003412;28;20032;-68
2022/08/29 05:32:05;;;;;;;10.82;1.95;;;;;;;;;;5007134;28;20134;-67
2022/08/29 05:34:32;;;;;;;8.93;1.60;;;;;;;;;;4984754;28;20115;-68
2022/08/29 05:37:00;;;;;;;5.55;1.52;;;;;;;;;;4986589;28;20057;-67
2022/08/29 05:39:26;;;;;;;6.32;1.60;;;;;;;;;;4968986;28;21245;-67
2022/08/29 05:41:56;;;;;;;7.28;1.80;;;;;;;;;;4983474;28;20042;-68
2022/08/29 05:44:23;;;;;;;8.48;1.73;;;;;;;;;;4983004;28;20052;-68
2022/08/29 05:46:49;;;;;;;8.82;1.60;;;;;;;;;;4983569;28;20128;-68
2022/08/29 05:49:15;;;;;;;8.77;1.67;;;;;;;;;;4967724;28;20053;-68
2022/08/29 05:51:41;;;;;;;6.95;1.40;;;;;;;;;;4980237;28;20057;-68
2022/08/29 05:54:08;;;;;;;4.93;1.42;;;;;;;;;;4986404;28;20554;-68
2022/08/29 05:56:34;;;;;;;7.70;1.60;;;;;;;;;;4983197;28;20034;-68
2022/08/29 05:59:00;;;;;;;6.45;1.63;;;;;;;;;;4984561;28;20030;-68
2022/08/29 06:01:28;;;;;;;5.78;1.52;;;;;;;;;;4986794;28;20030;-68
2022/08/29 06:03:55;;;;;;;9.27;1.70;;;;;;;;;;4981950;28;20425;-68
2022/08/29 06:06:22;;;;;;;8.43;1.80;;;;;;;;;;4985881;28;20034;-68
2022/08/29 06:08:49;;;;;;;6.28;1.83;;;;;;;;;;4982368;28;20215;-68
2022/08/29 06:11:19;;;;;;;9.10;2.10;;;;;;;;;;4982359;28;20042;-68
2022/08/29 06:13:46;;;;;;;9.50;2.22;;;;;;;;;;4980854;28;20512;-67
2022/08/29 06:16:16;;;;;;;11.85;2.50;;;;;;;;;;4984808;28;20425;-68
2022/08/29 06:18:43;;;;;;;10.55;2.40;;;;;;;;;;4982135;28;20050;-68
2022/08/29 06:21:10;;;;;;;9.57;2.25;;;;;;;;;;4982961;28;20026;-68
2022/08/29 06:23:37;;;;;;;12.98;2.28;;;;;;;;;;4982604;28;20133;-67
2022/08/29 06:26:03;;;;;;;10.32;2.00;;;;;;;;;;4983587;28;20173;-67
2022/08/29 06:28:30;;;;;;;7.82;2.17;;;;;;;;;;4983601;28;20029;-67
2022/08/29 06:30:56;;;;;;;9.98;2.30;;;;;;;;;;4981850;28;20125;-67
2022/08/29 06:33:22;;;;;;;10.90;2.30;;;;;;;;;;4982352;28;20026;-67
2022/08/29 06:35:49;;;;;;;9.10;2.30;;;;;;;;;;4962103;28;20050;-67
2022/08/29 06:38:15;;;;;;;13.30;3.42;;;;;;;;;;4939625;28;20032;-67
2022/08/29 06:40:41;;;;;;;15.23;2.38;;;;;;;;;;4978655;28;20112;-67
2022/08/29 06:43:07;;;;;;;10.00;2.30;;;;;;;;;;4988331;28;20269;-69
2022/08/29 06:45:39;;;;;;;8.65;1.98;;;;;;;;;;4990828;28;20112;-67
2022/08/29 06:48:05;;;;;;;10.77;2.28;;;;;;;;;;4986730;28;20030;-67
2022/08/29 06:50:31;;;;;;;8.10;2.10;;;;;;;;;;4988892;28;20044;-67
2022/08/29 06:52:57;;;;;;;8.45;1.90;;;;;;;;;;4971318;28;20025;-67
2022/08/29 06:55:23;;;;;;;9.18;2.28;;;;;;;;;;4988124;28;20128;-68
2022/08/29 06:57:49;;;;;;;9.23;2.00;;;;;;;;;;4987099;28;20379;-67
2022/08/29 07:00:15;;;;;;;8.07;1.80;;;;;;;;;;4985281;28;20069;-67
2022/08/29 07:02:42;;;;;;;6.13;1.73;;;;;;;;;;4985312;28;20083;-67
2022/08/29 07:05:08;;;;;;;8.73;2.10;;;;;;;;;;4988796;28;20033;-67
2022/08/29 07:07:34;;;;;;;9.15;2.10;;;;;;;;;;4989999;28;20495;-67
2022/08/29 07:10:00;;;;;;;7.28;1.70;;;;;;;;;;4986726;28;20045;-67
2022/08/29 07:12:26;;;;;;;6.10;2.00;;;;;;;;;;4978989;28;20026;-67
2022/08/29 07:14:52;;;;;;;8.07;1.88;;;;;;;;;;4921255;28;20030;-67
2022/08/29 07:17:19;;;;;;;7.10;1.60;;;;;;;;;;4949289;28;20480;-67
2022/08/29 07:19:47;;;;;;;5.45;1.67;;;;;;;;;;4958635;28;20044;-67
2022/08/29 07:22:13;;;;;;;5.70;1.70;;;;;;;;;;4964570;28;20018;-67
2022/08/29 07:24:39;;;;;;;6.35;1.65;;;;;;;;;;4950443;28;20045;-68
2022/08/29 07:27:05;;;;;;;6.13;1.73;;;;;;;;;;4958510;28;20726;-67
2022/08/29 07:29:32;;;;;;;4.40;1.33;;;;;;;;;;4951870;28;20640;-67
2022/08/29 07:31:58;;;;;;;8.70;1.75;;;;;;;;;;4944223;28;20037;-67
2022/08/29 07:34:24;;;;;;;6.25;1.90;;;;;;;;;;4946904;28;20077;-66
2022/08/29 07:36:51;;;;;;;7.28;1.70;;;;;;;;;;4961504;28;20692;-65
2022/08/29 07:39:18;;;;;;;6.53;1.90;;;;;;;;;;4945643;28;20040;-66
2022/08/29 07:41:45;;;;;;;6.28;1.95;;;;;;;;;;4984492;28;20025;-66
2022/08/29 07:44:11;;;;;;;5.85;1.83;;;;;;;;;;4985885;28;20468;-67
2022/08/29 07:46:38;;;;;;;6.80;2.20;;;;;;;;;;4963125;28;20502;-67
2022/08/29 07:49:04;;;;;;;6.38;1.95;;;;;;;;;;4954429;28;20037;-67
2022/08/29 07:51:30;;;;;;;7.18;1.88;;;;;;;;;;5005570;28;20040;-65
2022/08/29 07:53:57;;;;;;;4.60;1.60;;;;;;;;;;5006259;28;20251;-65
2022/08/29 07:56:31;;;;;;;5.95;1.50;;;;;;;;;;5008957;28;20040;-67
2022/08/29 07:58:57;;;;;;;8.27;1.98;;;;;;;;;;4984255;28;20025;-66
2022/08/29 08:01:23;;;;;;;5.45;1.55;;;;;;;;;;5008179;28;20059;-66
2022/08/29 08:03:50;;;;;;;6.55;1.88;;;;;;;;;;5005535;28;20052;-65
2022/08/29 08:06:17;;;;;;;6.15;1.80;;;;;;;;;;5008999;28;20033;-66
2022/08/29 08:08:43;;;;;;;7.13;1.80;;;;;;;;;;5002645;28;20376;-66
2022/08/29 08:11:09;;;;;;;5.35;1.65;;;;;;;;;;5006105;28;20048;-66
2022/08/29 08:13:37;;;;;;;6.00;1.77;;;;;;;;;;5008563;28;20465;-68
2022/08/29 08:16:04;;;;;;;5.70;1.67;;;;;;;;;;4993063;28;20478;-66
2022/08/29 08:18:31;;;;;;;5.47;1.40;;;;;;;;;;5006443;28;20031;-66
2022/08/29 08:20:57;;;;;;;4.97;1.23;;;;;;;;;;5003687;28;20340;-66
2022/08/29 08:23:23;;;;;;;4.25;1.38;;;;;;;;;;5009113;28;20241;-67
2022/08/29 08:25:49;;;;;;;6.35;1.50;;;;;;;;;;5004810;28;20034;-66
2022/08/29 08:28:17;;;;;;;4.68;1.40;;;;;;;;;;4993182;28;20552;-66
2022/08/29 08:30:43;;;;;;;6.20;1.50;;;;;;;;;;4993942;28;20032;-65
2022/08/29 08:33:10;;;;;;;5.40;1.30;;;;;;;;;;5012246;28;20037;-66
2022/08/29 08:35:37;;;;;;;6.88;1.83;;;;;;;;;;5009741;28;20064;-66
2022/08/29 08:38:03;;;;;;;6.15;1.58;;;;;;;;;;5009570;28;20333;-66
2022/08/29 08:40:30;;;;;;;3.03;0.90;;;;;;;;;;4995298;28;20414;-66
2022/08/29 08:43:00;;;;;;;3.95;0.98;;;;;;;;;;5009652;28;20033;-64
2022/08/29 08:45:36;;;;;;;4.93;1.05;;;;;;;;;;5012345;28;20025;-64
2022/08/29 08:48:08;;;;;;;5.38;1.25;;;;;;;;;;5011104;28;20570;-64
2022/08/29 08:50:42;;;;;;;3.60;1.10;;;;;;;;;;5010738;28;20061;-65
2022/08/29 08:53:20;;;;;;;4.30;1.17;;;;;;;;;;5010059;28;20092;-64
2022/08/29 08:55:48;;;;;;;5.43;1.40;;;;;;;;;;5007442;28;20033;-64
2022/08/29 08:58:17;;;;;;;5.90;1.25;;;;;;;;;;5011205;28;20041;-64
2022/08/29 09:00:46;;;;;;;6.15;1.10;;;;;;;;;;5007737;28;20071;-64
2022/08/29 09:03:17;;;;;;;4.35;1.08;;;;;;;;;;5012911;28;20036;-64
2022/08/29 09:06:07;;;;;;;6.03;1.35;;;;;;;;;;5008645;28;20028;-64
2022/08/29 09:08:43;;;;;;;5.35;1.35;;;;;;;;;;4999803;28;20482;-65
2022/08/29 09:11:21;;;;;;;6.32;1.35;;;;;;;;;;5010521;28;20084;-65
2022/08/29 09:14:02;;;;;;;5.03;1.30;;;;;;;;;;5008773;28;20045;-65
2022/08/29 09:16:33;;;;;;;3.72;1.30;;;;;;;;;;5010668;28;20037;-65
2022/08/29 09:19:08;;;;;;;5.32;1.58;;;;;;;;;;5008252;28;20031;-63
2022/08/29 09:21:39;;;;;;;4.78;1.40;;;;;;;;;;5011121;28;20411;-64
2022/08/29 09:24:08;;;;;;;4.85;1.30;;;;;;;;;;5008842;28;20064;-64
2022/08/29 09:26:34;;;;;;;5.40;1.33;;;;;;;;;;5011999;28;20036;-65
2022/08/29 09:29:01;;;;;;;5.55;1.42;;;;;;;;;;5010127;28;20113;-65
2022/08/29 09:31:28;;;;;;;4.25;1.20;;;;;;;;;;5011577;28;20052;-65
2022/08/29 09:34:07;;;;;;;5.22;1.20;;;;;;;;;;5005966;28;20132;-65
2022/08/29 09:36:49;;;;;;;5.13;1.25;;;;;;;;;;5009004;28;20503;-65
2022/08/29 09:39:21;;;;;;;5.28;1.27;;;;;;;;;;5011524;28;20037;-65
2022/08/29 09:41:49;;;;;;;5.38;1.05;;;;;;;;;;5004857;28;20373;-64
2022/08/29 09:44:25;;;;;;;4.10;0.98;;;;;;;;;;5009072;28;20127;-64
2022/08/29 09:47:09;;;;;;;5.28;1.20;;;;;;;;;;5006950;28;20045;-64
2022/08/29 09:49:38;;;;;;;6.72;1.23;;;;;;;;;;5004924;28;20045;-64
2022/08/29 09:52:16;;;;;;;5.68;1.27;;;;;;;;;;5009909;28;20032;-63
2022/08/29 09:54:43;;;;;;;6.97;1.60;;;;;;;;;;5008217;28;20021;-64
2022/08/29 09:57:09;;;;;;;5.97;1.25;;;;;;;;;;5010620;28;20029;-65
2022/08/29 09:59:37;;;;;;;4.95;1.33;;;;;;;;;;5011267;28;20021;-64
2022/08/29 10:02:09;;;;;;;5.72;1.17;;;;;;;;;;5011252;28;20044;-64
2022/08/29 10:04:36;;;;;;;5.15;1.25;;;;;;;;;;5008665;28;20037;-66
2022/08/29 10:07:09;;;;;;;6.53;1.23;;;;;;;;;;5010059;28;20777;-65
2022/08/29 10:09:35;;;;;;;5.20;1.02;;;;;;;;;;5010862;28;20463;-66
2022/08/29 10:12:11;;;;;;;5.85;1.27;;;;;;;;;;5010714;28;20052;-65
2022/08/29 10:14:37;;;;;;;;;;;;;;;;;;5007645;28;20479;-66
2022/08/29 10:19:52;;;;;;;4.25;1.00;;;;;;;;;;5008328;28;20051;-66
2022/08/29 10:22:37;;;;;;;3.95;1.00;;;;;;;;;;5011380;28;20438;-65
2022/08/29 10:25:22;;;;;;;7.22;1.05;;;;;;;;;;4991743;28;20416;-66
2022/08/29 10:27:52;;;;;;;5.55;1.00;;;;;;;;;;5006023;28;20574;-66
2022/08/29 10:30:23;;;;;;;4.85;1.00;;;;;;;;;;5010462;28;20036;-66
2022/08/29 10:32:52;;;;;;;5.93;1.50;;;;;;;;;;5006139;28;20178;-66
2022/08/29 10:35:18;;;;;;;2.75;0.93;;;;;;;;;;5008859;28;20049;-66
2022/08/29 10:37:57;;;;;;;6.05;1.13;;;;;;;;;;4993981;28;20092;-66
2022/08/29 10:40:44;;;;;;;4.53;1.30;;;;;;;;;;5010356;28;20037;-66
2022/08/29 10:43:13;;;;;;;6.53;1.40;;;;;;;;;;5010171;28;20026;-66
2022/08/29 10:45:48;;;;;;;3.17;1.05;;;;;;;;;;4989484;28;20030;-66
2022/08/29 10:48:20;;;;;;;4.00;1.13;;;;;;;;;;5010211;28;20033;-68
2022/08/29 10:50:49;;;;;;;6.22;1.10;;;;;;;;;;5004947;28;20029;-66
2022/08/29 10:53:18;;;;;;;5.40;1.30;;;;;;;;;;5009730;28;20115;-66
2022/08/29 10:56:07;;;;;;;6.60;1.00;;;;;;;;;;5006329;28;20555;-65
2022/08/29 10:58:50;;;;;;;5.72;1.42;;;;;;;;;;4999713;28;20095;-66
2022/08/29 11:01:26;;;;;;;7.45;1.25;;;;;;;;;;4992359;28;20487;-66
2022/08/29 11:04:16;;;;;;;4.53;0.93;;;;;;;;;;5006714;28;20089;-66
2022/08/29 11:06:48;;;;;;;3.40;0.90;;;;;;;;;;4990351;28;20380;-68
2022/08/29 11:09:14;;;;;;;5.88;1.20;;;;;;;;;;5006649;28;20151;-66
2022/08/29 11:11:43;;;;;;;4.28;1.00;;;;;;;;;;4999032;28;20030;-66
2022/08/29 11:14:16;;;;;;;4.55;1.08;;;;;;;;;;5008065;28;20040;-66
2022/08/29 11:16:45;;;;;;;5.18;1.10;;;;;;;;;;5005232;28;20078;-65
2022/08/29 11:19:29;;;;;;;4.13;1.10;;;;;;;;;;5008594;28;20025;-68
2022/08/29 11:22:09;;;;;;;4.97;1.00;;;;;;;;;;5006476;28;22816;-66
2022/08/29 11:24:36;;;;;;;5.07;1.10;;;;;;;;;;5003026;28;20067;-68
2022/08/29 11:27:09;;;;;;;5.47;1.10;;;;;;;;;;5005488;28;20146;-68
2022/08/29 11:29:45;;;;;;;4.57;1.10;;;;;;;;;;5005138;28;20048;-68
2022/08/29 11:32:11;;;;;;;3.97;1.05;;;;;;;;;;4984596;28;20089;-67
2022/08/29 11:34:55;;;;;;;5.28;1.10;;;;;;;;;;4990763;28;20050;-66
2022/08/29 11:37:21;;;;;;;5.78;1.05;;;;;;;;;;5006056;28;20127;-66
2022/08/29 11:40:00;;;;;;;3.85;1.00;;;;;;;;;;5002878;28;20117;-66
2022/08/29 11:42:28;;;;;;;5.38;1.20;;;;;;;;;;5007149;28;20120;-67
2022/08/29 11:44:55;;;;;;;6.60;1.20;;;;;;;;;;5003886;28;20034;-66
2022/08/29 11:47:56;;;;;;;6.35;1.35;;;;;;;;;;4990338;28;20395;-66
2022/08/29 11:50:28;;;;;;;5.85;1.15;;;;;;;;;;5004838;28;20091;-67
2022/08/29 11:52:57;;;;;;;7.57;1.50;;;;;;;;;;5002466;28;20033;-65
2022/08/29 11:55:31;;;;;;;6.75;1.98;;;;;;;;;;4988549;28;20752;-67
2022/08/29 11:58:03;;;;;;;11.32;2.05;;;;;;;;;;5001988;28;20056;-66
2022/08/29 12:00:40;;;;;;;12.02;2.05;;;;;;;;;;5006431;28;20048;-66
2022/08/29 12:03:26;;;;;;;7.80;1.85;;;;;;;;;;5007683;28;20029;-66
2022/08/29 12:05:56;;;;;;;18.30;3.05;;;;;;;;;;5002677;28;20029;-66
2022/08/29 12:08:30;;;;;;;8.70;1.70;;;;;;;;;;5006592;28;20495;-66
2022/08/29 12:10:57;;;;;;;17.50;2.70;;;;;;;;;;4984284;28;20045;-66
2022/08/29 12:13:41;;;;;;;7.50;1.50;;;;;;;;;;5007189;28;20096;-66
2022/08/29 12:16:08;;;;;;;6.13;1.10;;;;;;;;;;5003088;28;20037;-66
2022/08/29 12:18:43;;;;;;;5.35;1.13;;;;;;;;;;5006922;28;20037;-66
2022/08/29 12:21:09;;;;;;;;;;;;;;;;;;5006606;28;20101;-65
2022/08/29 12:23:36;;;;;;;3.75;0.88;;;;;;;;;;4996858;28;19925;-66
2022/08/29 12:26:04;;;;;;;6.38;1.50;;;;;;;;;;4986815;28;20384;-67
2022/08/29 12:28:43;;;;;;;5.63;1.25;;;;;;;;;;5006758;28;20029;-65
2022/08/29 12:31:11;;;;;;;7.30;1.40;;;;;;;;;;5004860;28;20478;-67
2022/08/29 12:34:00;;;;;;;4.22;1.33;;;;;;;;;;5000661;28;20056;-65
2022/08/29 12:36:29;;;;;;;4.90;1.30;;;;;;;;;;5006415;28;20048;-66
2022/08/29 12:38:58;;;;;;;5.43;1.10;;;;;;;;;;4998501;28;20179;-66
2022/08/29 12:41:47;;;;;;;4.57;1.05;;;;;;;;;;5004452;28;20045;-66
2022/08/29 12:44:15;;;;;;;4.85;1.00;;;;;;;;;;5000961;28;20030;-67
2022/08/29 12:46:43;;;;;;;3.97;1.00;;;;;;;;;;5000937;28;20035;-66
2022/08/29 12:49:15;;;;;;;7.15;1.48;;;;;;;;;;5005738;28;20086;-68
2022/08/29 12:51:42;;;;;;;4.40;1.10;;;;;;;;;;4975905;28;20044;-66
2022/08/29 12:54:10;;;;;;;5.60;1.30;;;;;;;;;;5004812;28;20116;-66
2022/08/29 12:56:39;;;;;;;5.18;1.30;;;;;;;;;;5000953;28;20601;-66
2022/08/29 12:59:05;;;;;;;8.70;1.10;;;;;;;;;;5004828;28;20021;-65
2022/08/29 13:01:38;;;;;;;4.47;1.13;;;;;;;;;;5004500;28;20394;-66
2022/08/29 13:04:10;;;;;;;4.75;1.00;;;;;;;;;;5004768;28;20120;-66
2022/08/29 13:06:36;;;;;;;5.47;1.20;;;;;;;;;;5002550;28;20136;-67
2022/08/29 13:09:04;;;;;;;5.60;1.20;;;;;;;;;;5004573;28;20033;-67
2022/08/29 13:11:31;;;;;;;6.30;1.20;;;;;;;;;;5006243;28;20517;-65
2022/08/29 13:14:04;;;;;;;4.40;1.30;;;;;;;;;;5002013;28;20057;-67
2022/08/29 13:16:31;;;;;;;4.95;1.25;;;;;;;;;;5002734;28;20060;-65
2022/08/29 13:18:57;;;;;;;4.85;1.10;;;;;;;;;;5005196;28;20179;-67
2022/08/29 13:21:25;;;;;;;5.75;1.20;;;;;;;;;;4990932;28;20099;-66
2022/08/29 13:23:59;;;;;;;8.05;1.10;;;;;;;;;;5005713;28;20048;-67
2022/08/29 13:26:31;;;;;;;4.22;1.00;;;;;;;;;;5006469;28;20029;-66
2022/08/29 13:28:59;;;;;;;5.78;1.30;;;;;;;;;;5003448;28;20021;-66
2022/08/29 13:31:31;;;;;;;5.15;1.27;;;;;;;;;;5009455;28;20468;-65
2022/08/29 13:33:57;;;;;;;5.00;1.30;;;;;;;;;;5001590;28;20035;-65
2022/08/29 13:36:26;;;;;;;6.55;1.30;;;;;;;;;;4988591;28;20112;-65
2022/08/29 13:39:12;;;;;;;5.68;1.10;;;;;;;;;;4986051;28;20076;-67
2022/08/29 13:41:38;;;;;;;4.80;1.00;;;;;;;;;;4985340;28;20033;-67
2022/08/29 13:44:04;;;;;;;4.30;1.10;;;;;;;;;;4988150;28;20030;-67
2022/08/29 13:46:31;;;;;;;5.53;1.30;;;;;;;;;;4971300;28;20514;-67
2022/08/29 13:48:58;;;;;;;4.60;0.93;;;;;;;;;;4984905;28;20472;-67
2022/08/29 13:51:24;;;;;;;5.95;1.10;;;;;;;;;;4988545;28;20038;-66
2022/08/29 13:53:54;;;;;;;5.85;1.10;;;;;;;;;;4985834;28;20073;-66
2022/08/29 13:56:29;;;;;;;6.70;1.27;;;;;;;;;;4988696;28;20034;-67
2022/08/29 13:58:55;;;;;;;8.38;1.30;;;;;;;;;;4984333;28;20211;-67
2022/08/29 14:01:22;;;;;;;4.53;1.10;;;;;;;;;;4988751;28;20037;-67
2022/08/29 14:03:49;;;;;;;7.32;1.17;;;;;;;;;;4983758;28;20026;-67
2022/08/29 14:06:17;;;;;;;5.35;1.10;;;;;;;;;;4989245;28;20255;-67
2022/08/29 14:08:43;;;;;;;6.68;1.30;;;;;;;;;;4986133;28;20034;-67
2022/08/29 14:11:09;;;;;;;6.80;1.30;;;;;;;;;;4988736;28;20362;-67
2022/08/29 14:13:35;;;;;;;5.70;1.20;;;;;;;;;;4973296;28;20026;-67
2022/08/29 14:16:02;;;;;;;5.60;1.02;;;;;;;;;;4988569;28;20148;-67
2022/08/29 14:18:28;;;;;;;4.93;1.08;;;;;;;;;;4988362;28;20642;-67
2022/08/29 14:20:54;;;;;;;7.30;1.30;;;;;;;;;;4985661;28;20663;-66
2022/08/29 14:23:20;;;;;;;6.70;1.20;;;;;;;;;;4988570;28;20485;-66
2022/08/29 14:25:46;;;;;;;6.75;1.30;;;;;;;;;;4985994;28;20026;-67
2022/08/29 14:28:13;;;;;;;5.28;1.30;;;;;;;;;;4988163;28;20508;-67
2022/08/29 14:30:39;;;;;;;6.55;1.20;;;;;;;;;;4983248;28;20038;-67
2022/08/29 14:33:05;;;;;;;6.38;1.23;;;;;;;;;;4969621;28;21151;-66
2022/08/29 14:35:31;;;;;;;7.10;1.48;;;;;;;;;;4983316;28;20372;-66
2022/08/29 14:37:57;;;;;;;3.85;1.10;;;;;;;;;;5003254;28;20033;-68
2022/08/29 14:40:24;;;;;;;6.90;1.30;;;;;;;;;;5004352;28;20093;-67
2022/08/29 14:42:50;;;;;;;5.57;1.00;;;;;;;;;;5003190;28;20037;-67
2022/08/29 14:45:17;;;;;;;6.07;1.20;;;;;;;;;;5006327;28;20699;-67
2022/08/29 14:47:45;;;;;;;5.25;1.30;;;;;;;;;;5004853;28;20044;-67
2022/08/29 14:50:12;;;;;;;5.57;1.30;;;;;;;;;;5006952;28;20037;-66
2022/08/29 14:52:39;;;;;;;5.28;1.17;;;;;;;;;;5005519;28;20071;-66
2022/08/29 14:55:06;;;;;;;5.10;1.02;;;;;;;;;;5006788;28;20028;-65
2022/08/29 14:57:32;;;;;;;3.78;0.98;;;;;;;;;;5007966;28;20034;-68
2022/08/29 14:59:58;;;;;;;4.53;0.88;;;;;;;;;;5004238;28;20076;-65